Welcome to our Virtual Airline
Sign-in:

Flight MFC9591

  • Submitted By: Igor Doksas
  • Departure Airport: Klawock (PAKW)
  • Arrival Airport: Annette Island (PANT)
  • Aircraft: BT67 (N0014M)
  • Flight Time: 00.28.42
  • Date Submitted: 2018/08/17
  • Route: FOLLOW THE TOUR FP
  • Status: Accepted
Flight Details
Gross Revenue:
(25 load / $ 0.00 per unit
$ 0.00
Fuel Cost:
(175.994 fuel used @ 5.1 / unit)
$ 897.57

Additional Log Information:

View Log

FS[12:18] ----- Flight Opened -----
FS[12:18] Cigar Box - 1.1.4.0
FS[12:18] FS: FSX
FS[12:18] FSUIPC: v4.966
FS[12:18] Flight Number: MFC9591
FS[12:18] FS Aircraft: Basler BT-67 Misty Moorings
FS[12:18] FS Model: DC3
FS[12:18] FS Type: Basler
FS[12:18] Departure: PAKW
FS[12:18] Arrival: PANT
FS[12:18] Flight Level: 3500
FS[12:18] Flight Type: H
FS[12:18] Passengers: 25
FS[12:18] FOB: 2685 lbs
FS[12:18] Gate: n/a
FS[12:18] Crash Detection: Disabled
FS[12:18] Crash Detection Aircraft: Disabled
FS[12:18] Engines: 2 Turboprop
FS[12:18] NOTE: Boarding has started
FS[12:18] Parking Brake: Engaged
FS[12:18] Engine 1: Started
FS[12:18] Engine 2: Started
FS[12:18] Light Data: Navigation ON
FS[12:18] Light Data: Beacon ON
FS[12:18] Light Data: Landing lights ON
FS[12:18] Main Door Closed
FS[12:18] COM1: 128.30
FS[12:18] COM2: 127.80
FS[12:18] Transponder: 1200
FS[12:18] NAV1: 113.70
FS[12:18] NAV2: 110.60
FS[12:18] ADF1: 284.0
FS[12:18] ADF2: 240.0
FS[12:18] Navigation Mode: GPS
FS[12:18] Navigation Mode: GPS
FS[12:18] Parking Brake: Released
FS[12:18] NOTE: Taxi started
FS[12:18] Flaps: Position 1
FS[12:18] NOTE: ----- TAKE OFF -----
FS[12:18] GS: 58 knots
FS[12:18] TAS: 57 knots
FS[12:18] IAS: 57 knots
FS[12:18] VS: 3 fpm
FS[12:18] FOB: 2679 lbs
FS[12:18] Heading: 214°
FS[12:18] Pitch: 10°
FS[12:18] Bank: 0°
FS[12:18] NOTE: ----- TAKE OFF -----
FS[12:18] GS: 58 knots
FS[12:18] TAS: 58 knots
FS[12:18] IAS: 58 knots
FS[12:18] VS: 4 fpm
FS[12:18] FOB: 2679 lbs
FS[12:18] Heading: 214°
FS[12:18] Pitch: 10°
FS[12:18] Bank: 0°
FS[12:18] Aircraft Weight: 18769.11 lbs
FS[12:18] Aircraft Weight: 18769.11 lbs
FS[12:18] NOTE: ----- TAKE OFF -----
FS[12:18] GS: 58 knots
FS[12:18] TAS: 58 knots
FS[12:18] IAS: 58 knots
FS[12:18] Nearest Airport: PAKW
FS[12:18] Nearest Airport: PAKW
FS[12:18] VS: 6 fpm
FS[12:18] Distance: 0.69 miles
FS[12:18] Distance: 0.69 miles
FS[12:18] FOB: 2679 lbs
FS[12:18] NOTE: ----- TAKE OFF -----
FS[12:18] GS: 58 knots
FS[12:18] TAS: 59 knots
FS[12:18] IAS: 59 knots
FS[12:18] VS: 7 fpm
FS[12:18] FOB: 2679 lbs
FS[12:18] Heading: 214°
FS[12:18] Runway: ???
FS[12:18] Heading: 214°
FS[12:18] Runway: ???
FS[12:18] Pitch: 9°
FS[12:18] Bank: 0°
FS[12:18] Aircraft Weight: 18769.11 lbs
FS[12:18] Nearest Airport: PAKW
FS[12:18] Distance: 0.69 miles
FS[12:18] Runway: ???
FS[12:18] NOTE: ----- TAKE OFF -----
FS[12:18] GS: 60 knots
FS[12:18] TAS: 60 knots
FS[12:18] IAS: 60 knots
FS[12:18] VS: 10 fpm
FS[12:18] FOB: 2679 lbs
FS[12:18] Heading: 214°
FS[12:18] Pitch: 9°
FS[12:18] Pitch: 9°
FS[12:18] Bank: 0°
FS[12:18] Bank: 0°
FS[12:18] Aircraft Weight: 18769.11 lbs
FS[12:18] Nearest Airport: PAKW
FS[12:18] Aircraft Weight: 18769.11 lbs
FS[12:18] Distance: 0.69 miles
FS[12:18] Nearest Airport: PAKW
FS[12:18] NOTE: ----- TAKE OFF -----
FS[12:18] Ground Surface: Asphalt
FS[12:18] Ground Surface: Asphalt
FS[12:18] Ground Surface: Asphalt
FS[12:18] Distance: 0.67 miles
FS[12:18] Ground Condition: Normal
FS[12:18] Ground Condition: Normal
FS[12:18] Runway: ???
FS[12:18] Ground Surface: Asphalt
FS[12:18] Ground Condition: Normal
FS[12:18] NOTE: Weather Report
FS[12:18] Wind Heading: 341°
FS[12:18] Wind Speed: 0 knots
FS[12:18] OAT: 14° C
FS[12:18] TAT: 15° C
FS[12:18] Precipitation: None
FS[12:18] Dew Point: 4° C
FS[12:18] Visibility: 62 miles
FS[12:18] METAR: PAKW 162353Z AUTO 22007KT 10SM CLR 17/09 A3014 RMK AO2 SLP207 T01720094 10194 20133 51005 TSNO
FS[12:18] Runway: ???
FS[12:18] Ground Surface: Asphalt
FS[12:18] Ground Condition: Normal
FS[12:18] NOTE: Weather Report
FS[12:18] Wind Heading: 341°
FS[12:18] Wind Speed: 0 knots
FS[12:18] OAT: 14° C
FS[12:18] TAT: 15° C
FS[12:18] Precipitation: None
FS[12:18] Dew Point: 4° C
FS[12:18] Visibility: 62 miles
FS[12:18] METAR: PAKW 162353Z AUTO 22007KT 10SM CLR 17/09 A3014 RMK AO2 SLP207 T01720094 10194 20133 51005 TSNO
FS[12:18] Ground Condition: Normal
FS[12:18] NOTE: Weather Report
FS[12:18] Wind Heading: 341°
FS[12:18] Wind Speed: 0 knots
FS[12:18] OAT: 14° C
FS[12:18] TAT: 15° C
FS[12:18] Precipitation: None
FS[12:18] Dew Point: 4° C
FS[12:18] Visibility: 62 miles
FS[12:18] METAR: PAKW 162353Z AUTO 22007KT 10SM CLR 17/09 A3014 RMK AO2 SLP207 T01720094 10194 20133 51005 TSNO
FS[12:18] NOTE: Weather Report
FS[12:18] NOTE: Weather Report
FS[12:18] GS: 62 knots
FS[12:18] TAS: 62 knots
FS[12:18] IAS: 62 knots
FS[12:18] VS: 29 fpm
FS[12:18] FOB: 2679 lbs
FS[12:18] Heading: 213°
FS[12:18] Pitch: 9°
FS[12:18] Bank: 0°
FS[12:18] Aircraft Weight: 18768.31 lbs
FS[12:18] Nearest Airport: PAKW
FS[12:18] Distance: 0.67 miles
FS[12:18] Runway: ???
FS[12:18] Ground Surface: Asphalt
FS[12:18] Ground Condition: Normal
FS[12:18] NOTE: Weather Report
FS[12:18] Wind Heading: 341°
FS[12:18] Wind Speed: 0 knots
FS[12:18] OAT: 14° C
FS[12:18] TAT: 15° C
FS[12:18] Precipitation: None
FS[12:18] Dew Point: 4° C
FS[12:18] Visibility: 62 miles
FS[12:18] METAR: PAKW 162353Z AUTO 22007KT 10SM CLR 17/09 A3014 RMK AO2 SLP207 T01720094 10194 20133 51005 TSNO
FS[12:18] Wind Heading: 341°
FS[12:18] Wind Speed: 0 knots
FS[12:18] OAT: 14° C
FS[12:18] TAT: 15° C
FS[12:18] Precipitation: None
FS[12:18] Dew Point: 4° C
FS[12:18] Visibility: 62 miles
FS[12:18] METAR: PAKW 162353Z AUTO 22007KT 10SM CLR 17/09 A3014 RMK AO2 SLP207 T01720094 10194 20133 51005 TSNO
FS[12:18] Wind Heading: 341°
FS[12:18] Wind Speed: 0 knots
FS[12:18] OAT: 14° C
FS[12:18] TAT: 15° C
FS[12:18] Precipitation: None
FS[12:18] Dew Point: 4° C
FS[12:18] Visibility: 62 miles
FS[12:18] METAR: PAKW 162353Z AUTO 22007KT 10SM CLR 17/09 A3014 RMK AO2 SLP207 T01720094 10194 20133 51005 TSNO
FS[12:18] NOTE: Climb started
FS[12:18] Landing Gear: Retracted
FS[12:18] GS: 83 knots
FS[12:18] TAS: 84 knots
FS[12:18] IAS: 84 knots
FS[12:18] VS: 898 fpm
FS[12:18] AGL: 59 ft
FS[12:18] AMSL: 91 ft
FS[12:18] Flaps: Position 0
FS[12:18] GS: 83 knots
FS[12:18] TAS: 86 knots
FS[12:18] IAS: 86 knots
FS[12:18] VS: 1224 fpm
FS[12:19] Autopilot: Engaged
FS[12:19] AGL: 105 ft
FS[12:19] AMSL: 137 ft
FS[12:19] View Mode: Virtual Cockpit
FS[12:20] NOTE: TOC reached
FS[12:20] NOTE: Cruise started
FS[12:20] GS: 188 knots
FS[12:20] TAS: 189 knots
FS[12:20] IAS: 181 knots
FS[12:20] VS: 194 fpm
FS[12:20] FOB: 2633 lbs
FS[12:20] Heading: 180°
FS[12:20] Pitch: 0°
FS[12:20] Bank: 0°
FS[12:20] Aircraft Weight: 18723.63 lbs
FS[12:21] Light Data: Landing lights OFF
FS[12:21] AGL: 3399 ft
FS[12:21] AMSL: 3500 ft
FS[12:35] FS: Paused
FS[12:35] Recovery: Flight Saved
FS[12:35] FS: Unpaused
FS[12:36] Light Data: Landing lights ON
FS[12:36] AGL: 3405 ft
FS[12:36] AMSL: 3405 ft
FS[12:37] NOTE: TOD reached
FS[12:37] NOTE: Descent started
FS[12:37] GS: 159 knots
FS[12:37] TAS: 159 knots
FS[12:37] IAS: 153 knots
FS[12:37] VS: -489 fpm
FS[12:37] FOB: 2361 lbs
FS[12:37] Heading: 115°
FS[12:37] Pitch: 2°
FS[12:37] Bank: 2°
FS[12:37] Aircraft Weight: 18451.99 lbs
FS[12:37] NOTE: On approach
FS[12:41] Flaps: Position 1
FS[12:41] GS: 134 knots
FS[12:41] TAS: 134 knots
FS[12:41] IAS: 131 knots
FS[12:41] VS: -4 fpm
FS[12:41] Landing Gear: Extended
FS[12:41] GS: 120 knots
FS[12:41] TAS: 120 knots
FS[12:41] IAS: 117 knots
FS[12:41] VS: -83 fpm
FS[12:41] AGL: 2017 ft
FS[12:41] AMSL: 2017 ft
FS[12:42] Flaps: Position 2
FS[12:42] GS: 93 knots
FS[12:42] TAS: 93 knots
FS[12:42] IAS: 91 knots
FS[12:42] VS: 60 fpm
FS[12:42] Flaps: Position 3
FS[12:42] GS: 85 knots
FS[12:42] TAS: 85 knots
FS[12:42] IAS: 83 knots
FS[12:42] VS: 110 fpm
FS[12:42] Flaps: Position 4
FS[12:42] GS: 83 knots
FS[12:42] TAS: 84 knots
FS[12:42] IAS: 82 knots
FS[12:42] VS: 166 fpm
FS[12:46] Autopilot: Disengaged
FS[12:46] AGL: 193 ft
FS[12:46] AMSL: 252 ft
FS[12:47] NOTE: ----- LANDED -----
FS[12:47] Landing Rate: -79.20 fpm
FS[12:47] GS: 66 knots
FS[12:47] TAS: 66 knots
FS[12:47] IAS: 66 knots
FS[12:47] VS: -76 fpm
FS[12:47] FOB: 2299 lbs
FS[12:47] Heading: 132°
FS[12:47] Pitch: 1°
FS[12:47] Bank: 0°
FS[12:47] Aircraft Weight: 18388.96 lbs
FS[12:47] Nearest Airport: PANT
FS[12:47] Distance: 0.95 miles
FS[12:47] Runway: 12 - PANT
FS[12:47] Ground Surface: Asphalt
FS[12:47] Ground Condition: Normal
FS[12:47] NOTE: Weather Report
FS[12:47] Wind Heading: 341°
FS[12:47] Wind Speed: 0 knots
FS[12:47] OAT: 14° C
FS[12:47] TAT: 15° C
FS[12:47] Precipitation: None
FS[12:47] Dew Point: 4° C
FS[12:47] Visibility: 62 miles
FS[12:47] METAR: PANT 162353Z AUTO VRB03KT 10SM CLR 19/08 A3015 RMK SLP212 T01890078 10200 20150 51006 TSNO VIA AUTODIAL
FS[12:47] View Mode: Spot Plane
FS[12:47] NOTE: Taxi started
FS[12:47] NOTE: Arrived
FS[12:47] Parking Brake: Engaged
FS[12:47] Flaps: Position 0
FS[12:47] Flaps: Position 1
FS[12:47] Gate: n/a
FS[12:47] NOTE: Flight Completed
FS[12:47] FS Aircraft: Basler BT-67 Misty Moorings
FS[12:47] FS Model: DC3
FS[12:47] FS Type: Basler
FS[12:47] FOB: 2297 lbs
FS[12:47] Fuel Used: 388 lbs
FS[12:47] Flight Time: 00:28:41
FS[12:47] Flight Time (Dawn): 00:00:00
FS[12:47] Flight Time (Day): 00:28:41
FS[12:47] Flight Time (Dusk): 00:00:00
FS[12:47] Flight Time (Night): 00:00:00
FS[12:47] Total Landings: 1
FS[12:47] MaxSim Rate: 0x
FS[12:48] Cigar Box - 1.1.4.0
FS[12:48] ----- Flight Closed -----

Route Map